createdAt,value
2019-03-26T00:00:59.698Z,97.92
2019-03-26T00:01:59.702Z,98.60
2019-03-26T00:02:59.686Z,98.86
2019-03-26T00:04:05.874Z,98.50
2019-03-26T00:05:00.686Z,98.29
2019-03-26T00:05:59.662Z,98.39
2019-03-26T00:06:59.636Z,98.92
2019-03-26T00:07:59.625Z,98.60
2019-03-26T00:08:59.616Z,98.39
2019-03-26T00:09:59.629Z,97.88
2019-03-26T00:10:59.604Z,98.71
2019-03-26T00:11:59.585Z,98.50
2019-03-26T00:12:59.607Z,98.82
2019-03-26T00:13:59.568Z,99.23
2019-03-26T00:14:59.570Z,99.23
2019-03-26T00:15:59.542Z,99.23
2019-03-26T00:16:59.533Z,98.92
2019-03-26T00:17:59.524Z,98.39
2019-03-26T00:18:59.507Z,98.71
2019-03-26T00:19:59.539Z,98.82
2019-03-26T00:20:59.494Z,98.92
2019-03-26T00:21:59.485Z,98.82
2019-03-26T00:22:59.469Z,98.71
2019-03-26T00:23:59.467Z,98.39
2019-03-26T00:24:59.488Z,98.82
2019-03-26T00:25:59.443Z,98.71
2019-03-26T00:26:59.423Z,98.87
2019-03-26T00:27:59.413Z,99.02
2019-03-26T00:28:59.407Z,99.13
2019-03-26T00:29:59.429Z,99.18
2019-03-26T00:30:59.406Z,98.92
2019-03-26T00:31:59.368Z,98.29
2019-03-26T00:32:59.358Z,98.29
2019-03-26T00:33:59.389Z,98.19
2019-03-26T00:34:59.337Z,98.71
2019-03-26T00:35:59.353Z,98.50
2019-03-26T00:36:59.321Z,98.82
2019-03-26T00:37:59.311Z,98.60
2019-03-26T00:38:59.296Z,98.60
2019-03-26T00:39:59.344Z,98.19
2019-03-26T00:40:59.295Z,98.82
2019-03-26T00:41:59.263Z,98.39
2019-03-26T00:42:59.253Z,98.29
2019-03-26T00:43:59.247Z,97.98
2019-03-26T00:44:59.235Z,97.71
2019-03-26T00:45:59.235Z,97.92
2019-03-26T00:46:59.211Z,98.02
2019-03-26T00:47:59.199Z,98.34
2019-03-26T00:48:59.186Z,98.86
2019-03-26T00:49:59.194Z,98.65
2019-03-26T00:50:59.182Z,98.55
2019-03-26T00:51:59.156Z,98.50
2019-03-26T00:52:59.146Z,98.86
2019-03-26T00:53:59.133Z,98.96
2019-03-26T00:54:59.132Z,98.86
2019-03-26T00:55:59.131Z,98.50
2019-03-26T00:56:59.102Z,98.65
2019-03-26T00:58:01.478Z,98.86
2019-03-26T00:58:59.087Z,98.75
2019-03-26T00:59:59.072Z,98.55
2019-03-26T01:00:59.074Z,98.75
2019-03-26T01:01:59.050Z,98.34
2019-03-26T01:02:59.043Z,98.65
2019-03-26T01:03:59.056Z,98.86
2019-03-26T01:04:59.020Z,98.38
2019-03-26T01:05:59.020Z,98.49
2019-03-26T01:06:58.997Z,98.69
2019-03-26T01:07:58.986Z,98.34
2019-03-26T01:08:58.973Z,98.28
2019-03-26T01:09:58.990Z,98.80
2019-03-26T01:10:58.954Z,98.59
2019-03-26T01:11:58.962Z,99.11
2019-03-26T01:12:58.932Z,99.32
2019-03-26T01:13:58.924Z,98.69
2019-03-26T01:14:58.910Z,99.01
2019-03-26T01:15:58.908Z,99.01
2019-03-26T01:16:58.958Z,98.90
2019-03-26T01:17:58.882Z,98.90
2019-03-26T01:18:58.864Z,99.05
2019-03-26T01:19:58.858Z,98.49
2019-03-26T01:20:58.849Z,98.69
2019-03-26T01:21:58.850Z,98.80
2019-03-26T01:22:58.832Z,97.86
2019-03-26T01:23:58.867Z,98.43
2019-03-26T01:24:58.803Z,97.91
2019-03-26T01:25:58.794Z,98.53
2019-03-26T01:26:58.792Z,98.53
2019-03-26T01:27:58.770Z,99.05
2019-03-26T01:28:58.762Z,98.74
2019-03-26T01:29:58.770Z,98.85
2019-03-26T01:30:58.773Z,98.53
2019-03-26T01:31:58.754Z,98.43
2019-03-26T01:32:58.726Z,98.53
2019-03-26T01:33:58.706Z,98.63
2019-03-26T01:34:58.718Z,98.95
2019-03-26T01:35:58.686Z,98.99
2019-03-26T01:36:58.693Z,99.20
2019-03-26T01:37:58.711Z,99.20
2019-03-26T01:38:58.658Z,99.26
2019-03-26T01:39:58.646Z,99.20
2019-03-26T01:40:58.634Z,99.16
2019-03-26T01:41:58.638Z,99.57
2019-03-26T01:42:58.613Z,99.99
2019-03-26T01:43:58.619Z,99.79
2019-03-26T01:44:58.596Z,99.99
2019-03-26T01:45:58.583Z,99.99
2019-03-26T01:46:58.603Z,99.99
2019-03-26T01:47:58.553Z,99.99
2019-03-26T01:48:58.545Z,99.99
2019-03-26T01:49:58.554Z,99.99
2019-03-26T01:50:58.557Z,99.99
2019-03-26T01:51:58.531Z,99.99
2019-03-26T01:52:58.561Z,99.99
2019-03-26T01:53:58.498Z,99.99
2019-03-26T01:54:58.489Z,99.99
2019-03-26T01:55:58.488Z,99.99
2019-03-26T01:56:58.483Z,99.99
2019-03-26T01:57:58.459Z,99.99
2019-03-26T01:58:58.438Z,99.99
2019-03-26T01:59:58.431Z,99.99
2019-03-26T02:00:58.459Z,99.99
2019-03-26T02:01:58.434Z,99.93
2019-03-26T02:02:58.401Z,99.93
2019-03-26T02:03:58.440Z,99.62
2019-03-26T02:05:00.371Z,99.62
2019-03-26T02:05:58.367Z,99.83
2019-03-26T02:06:58.373Z,99.99
2019-03-26T02:07:58.396Z,99.99
2019-03-26T02:08:58.369Z,99.99
2019-03-26T02:09:58.325Z,99.99
2019-03-26T02:10:58.317Z,99.62
2019-03-26T02:11:58.377Z,99.99
2019-03-26T02:12:58.299Z,99.52
2019-03-26T02:13:58.289Z,99.83
2019-03-26T02:14:58.270Z,99.93
2019-03-26T02:15:58.258Z,99.99
2019-03-26T02:16:58.342Z,99.99
2019-03-26T02:17:58.244Z,99.99
2019-03-26T02:18:58.230Z,99.99
2019-03-26T02:19:58.245Z,99.99
2019-03-26T02:20:58.210Z,99.99
2019-03-26T02:21:58.228Z,99.99
2019-03-26T02:22:58.188Z,99.99
2019-03-26T02:23:58.172Z,99.99
2019-03-26T02:24:58.166Z,99.99
2019-03-26T02:25:58.153Z,99.99
2019-03-26T02:26:58.224Z,99.99
2019-03-26T02:27:58.128Z,99.99
2019-03-26T02:28:58.123Z,99.99
2019-03-26T02:29:58.106Z,99.99
2019-03-26T02:30:58.109Z,99.99
2019-03-26T02:31:58.109Z,99.99
2019-03-26T02:32:58.098Z,99.99
2019-03-26T02:33:58.075Z,99.99
2019-03-26T02:34:58.057Z,99.99
2019-03-26T02:35:58.053Z,99.99
2019-03-26T02:36:58.054Z,99.99
2019-03-26T02:37:58.118Z,99.99
2019-03-26T02:38:58.014Z,99.99
2019-03-26T02:39:58.007Z,99.99
2019-03-26T02:40:58.054Z,99.99
2019-03-26T02:41:57.990Z,99.99
2019-03-26T02:42:57.989Z,99.99
2019-03-26T02:43:57.967Z,99.99
2019-03-26T02:44:57.996Z,99.99
2019-03-26T02:45:57.944Z,99.99
2019-03-26T02:46:57.962Z,99.99
2019-03-26T02:47:57.942Z,99.99
2019-03-26T02:48:57.915Z,99.99
2019-03-26T02:49:57.909Z,99.99
2019-03-26T02:50:57.892Z,99.99
2019-03-26T02:51:57.879Z,99.99
2019-03-26T02:52:57.953Z,99.99
2019-03-26T02:53:57.873Z,99.99
2019-03-26T02:54:57.858Z,99.99
2019-03-26T02:55:57.841Z,99.99
2019-03-26T02:56:57.870Z,99.99
2019-03-26T02:57:57.839Z,99.99
2019-03-26T02:58:57.810Z,99.99
2019-03-26T02:59:57.796Z,99.99
2019-03-26T03:00:57.781Z,99.99
2019-03-26T03:01:57.827Z,99.99
2019-03-26T03:02:57.781Z,99.99
2019-03-26T03:03:57.756Z,99.99
2019-03-26T03:04:57.737Z,99.99
2019-03-26T03:05:57.727Z,99.99
2019-03-26T03:06:57.770Z,99.99
2019-03-26T03:07:57.726Z,99.99
2019-03-26T03:08:57.695Z,99.99
2019-03-26T03:09:57.688Z,99.99
2019-03-26T03:10:57.678Z,99.99
2019-03-26T03:11:57.665Z,99.99
2019-03-26T03:12:57.669Z,99.99
2019-03-26T03:13:57.648Z,99.99
2019-03-26T03:14:57.644Z,99.99
2019-03-26T03:15:57.633Z,99.99
2019-03-26T03:16:57.608Z,99.99
2019-03-26T03:17:57.613Z,99.99
2019-03-26T03:18:57.592Z,99.99
2019-03-26T03:19:57.577Z,99.99
2019-03-26T03:20:57.565Z,99.99
2019-03-26T03:21:57.595Z,99.99
2019-03-26T03:22:57.562Z,99.99
2019-03-26T03:23:57.537Z,99.99
2019-03-26T03:24:57.524Z,99.99
2019-03-26T03:25:57.514Z,99.99
2019-03-26T03:26:57.505Z,99.99
2019-03-26T03:27:57.531Z,99.99
2019-03-26T03:28:57.487Z,99.99
2019-03-26T03:29:57.480Z,99.99
2019-03-26T03:30:57.458Z,99.99
2019-03-26T03:31:57.460Z,99.99
2019-03-26T03:32:57.453Z,99.99
2019-03-26T03:33:57.444Z,99.99
2019-03-26T03:34:57.454Z,99.99
2019-03-26T03:35:57.413Z,99.99
2019-03-26T03:36:57.409Z,99.99
2019-03-26T03:37:57.466Z,99.99
2019-03-26T03:38:57.378Z,99.99
2019-03-26T03:39:57.370Z,99.99
2019-03-26T03:40:57.363Z,99.99
2019-03-26T03:41:57.350Z,99.99
2019-03-26T03:42:57.351Z,99.99
2019-03-26T03:43:57.323Z,99.99
2019-03-26T03:44:57.365Z,99.99
2019-03-26T03:45:57.303Z,99.99
2019-03-26T03:46:57.301Z,99.99
2019-03-26T03:47:57.300Z,99.99
2019-03-26T03:48:57.268Z,99.99
2019-03-26T03:49:57.256Z,99.99
2019-03-26T03:50:57.261Z,99.99
2019-03-26T03:51:57.232Z,99.99
2019-03-26T03:52:57.239Z,99.99
2019-03-26T03:53:57.306Z,99.99
2019-03-26T03:54:57.217Z,99.99
2019-03-26T03:55:57.197Z,99.99
2019-03-26T03:56:57.181Z,99.99
2019-03-26T03:57:57.187Z,99.99
2019-03-26T03:58:57.166Z,99.99
2019-03-26T03:59:57.152Z,99.99
2019-03-26T04:00:57.140Z,99.99
2019-03-26T04:01:57.130Z,99.99
2019-03-26T04:02:57.135Z,99.99
2019-03-26T04:03:57.130Z,99.99
2019-03-26T04:04:57.092Z,99.99
2019-03-26T04:06:09.144Z,99.99
2019-03-26T04:06:58.092Z,99.99
2019-03-26T04:07:57.336Z,99.99
2019-03-26T04:08:57.098Z,99.99
2019-03-26T04:09:57.046Z,99.99
2019-03-26T04:10:57.039Z,99.99
2019-03-26T04:11:57.020Z,99.99
2019-03-26T04:12:57.013Z,99.99
2019-03-26T04:13:57.046Z,99.99
2019-03-26T04:14:56.986Z,99.99
2019-03-26T04:15:56.985Z,99.99
2019-03-26T04:16:57.014Z,99.99
2019-03-26T04:17:56.959Z,99.99
2019-03-26T04:18:56.970Z,99.99
2019-03-26T04:19:56.937Z,99.99
2019-03-26T04:20:56.929Z,99.99
2019-03-26T04:21:56.923Z,99.99
2019-03-26T04:22:56.944Z,99.99
2019-03-26T04:23:56.913Z,99.99
2019-03-26T04:24:56.881Z,99.99
2019-03-26T04:25:56.878Z,99.99
2019-03-26T04:26:56.876Z,99.99
2019-03-26T04:27:56.852Z,99.99
2019-03-26T04:28:56.881Z,99.99
2019-03-26T04:29:56.831Z,99.99
2019-03-26T04:30:56.818Z,99.99
2019-03-26T04:31:56.851Z,99.99
2019-03-26T04:32:56.824Z,99.99
2019-03-26T04:33:56.799Z,99.99
2019-03-26T04:34:56.811Z,99.99
2019-03-26T04:35:56.767Z,99.99
2019-03-26T04:36:56.753Z,99.99
2019-03-26T04:37:56.779Z,99.99
2019-03-26T04:38:56.761Z,99.99
2019-03-26T04:39:56.736Z,99.99
2019-03-26T04:40:56.711Z,99.99
2019-03-26T04:41:56.706Z,99.99
2019-03-26T04:42:56.694Z,99.99
2019-03-26T04:43:56.697Z,99.99
2019-03-26T04:44:56.699Z,99.99
2019-03-26T04:45:56.667Z,99.99
2019-03-26T04:46:56.671Z,99.99
2019-03-26T04:47:56.637Z,99.99
2019-03-26T04:48:56.646Z,99.99
2019-03-26T04:49:56.625Z,99.99
2019-03-26T04:50:56.607Z,99.99
2019-03-26T04:51:56.599Z,99.99
2019-03-26T04:52:56.610Z,99.99
2019-03-26T04:53:56.569Z,99.99
2019-03-26T04:54:56.578Z,99.99
2019-03-26T04:55:56.550Z,99.99
2019-03-26T04:56:56.538Z,99.99
2019-03-26T04:57:56.533Z,99.99
2019-03-26T04:58:56.560Z,99.99
2019-03-26T04:59:56.522Z,99.99
2019-03-26T05:00:56.492Z,99.99
2019-03-26T05:01:56.484Z,99.99
2019-03-26T05:02:56.472Z,99.99
2019-03-26T05:03:56.462Z,99.99
2019-03-26T05:04:56.521Z,99.99
2019-03-26T05:05:56.459Z,99.99
2019-03-26T05:06:56.432Z,99.99
2019-03-26T05:07:56.432Z,99.99
2019-03-26T05:08:56.433Z,99.99
2019-03-26T05:09:56.422Z,99.99
2019-03-26T05:10:56.387Z,99.99
2019-03-26T05:11:56.383Z,99.73
2019-03-26T05:12:56.371Z,99.84
2019-03-26T05:13:56.365Z,99.94
2019-03-26T05:14:56.418Z,99.58
2019-03-26T05:15:56.342Z,99.32
2019-03-26T05:16:56.328Z,99.37
2019-03-26T05:17:56.820Z,98.85
2019-03-26T05:18:56.324Z,98.85
2019-03-26T05:19:56.308Z,98.96
2019-03-26T05:20:56.282Z,98.33
2019-03-26T05:21:56.274Z,98.75
2019-03-26T05:22:56.365Z,98.85
2019-03-26T05:23:56.256Z,98.85
2019-03-26T05:24:56.258Z,98.75
2019-03-26T05:25:56.228Z,97.88
2019-03-26T05:26:56.255Z,98.29
2019-03-26T05:27:56.209Z,98.39
2019-03-26T05:28:56.196Z,97.81
2019-03-26T05:29:56.210Z,97.56
2019-03-26T05:30:56.215Z,97.04
2019-03-26T05:31:56.168Z,97.14
2019-03-26T05:32:56.160Z,97.45
2019-03-26T05:33:56.141Z,97.45
2019-03-26T05:34:56.134Z,97.35
2019-03-26T05:35:56.131Z,97.14
2019-03-26T05:36:56.121Z,97.56
2019-03-26T05:37:56.101Z,97.45
2019-03-26T05:38:56.088Z,97.45
2019-03-26T05:39:56.087Z,97.25
2019-03-26T05:40:56.092Z,97.04
2019-03-26T05:41:56.055Z,97.20
2019-03-26T05:42:56.049Z,97.41
2019-03-26T05:43:56.051Z,97.20
2019-03-26T05:44:56.028Z,97.25
2019-03-26T05:45:56.030Z,97.41
2019-03-26T05:46:56.004Z,97.56
2019-03-26T05:47:55.996Z,96.89
2019-03-26T05:48:55.980Z,97.41
2019-03-26T05:49:56.058Z,96.58
2019-03-26T05:50:56.018Z,96.79
2019-03-26T05:51:55.951Z,97.20
2019-03-26T05:52:55.935Z,97.00
2019-03-26T05:53:55.933Z,96.58
2019-03-26T05:54:55.919Z,96.79
2019-03-26T05:55:55.928Z,96.69
2019-03-26T05:56:55.925Z,97.00
2019-03-26T05:57:55.885Z,96.58
2019-03-26T05:58:55.882Z,96.48
2019-03-26T05:59:55.865Z,96.69
2019-03-26T06:00:55.865Z,96.69
2019-03-26T06:01:55.847Z,96.48
2019-03-26T06:02:55.836Z,95.96
2019-03-26T06:03:55.838Z,95.65
2019-03-26T06:04:55.812Z,95.65
2019-03-26T06:05:55.821Z,95.03
2019-03-26T06:07:04.746Z,95.29
2019-03-26T06:07:56.788Z,95.29
2019-03-26T06:08:55.768Z,94.67
2019-03-26T06:09:55.761Z,94.46
2019-03-26T06:10:55.750Z,94.36
2019-03-26T06:11:55.774Z,94.78
2019-03-26T06:12:55.722Z,94.78
2019-03-26T06:13:55.721Z,94.36
2019-03-26T06:14:55.702Z,94.11
2019-03-26T06:15:55.690Z,94.11
2019-03-26T06:16:55.700Z,94.15
2019-03-26T06:17:57.552Z,94.21
2019-03-26T06:18:55.660Z,94.11
2019-03-26T06:19:55.654Z,93.90
2019-03-26T06:20:55.639Z,94.53
2019-03-26T06:21:55.651Z,93.18
2019-03-26T06:22:55.617Z,93.80
2019-03-26T06:23:55.622Z,92.72
2019-03-26T06:24:55.618Z,92.72
2019-03-26T06:25:55.587Z,92.82
2019-03-26T06:26:55.588Z,93.33
2019-03-26T06:27:55.570Z,92.57
2019-03-26T06:28:55.554Z,92.05
2019-03-26T06:29:55.542Z,92.63
2019-03-26T06:30:55.530Z,90.77
2019-03-26T06:31:55.530Z,92.01
2019-03-26T06:32:55.512Z,93.04
2019-03-26T06:33:55.534Z,90.72
2019-03-26T06:34:55.486Z,91.14
2019-03-26T06:35:55.477Z,91.35
2019-03-26T06:36:55.480Z,90.31
2019-03-26T06:37:55.459Z,90.37
2019-03-26T06:38:55.442Z,90.16
2019-03-26T06:39:58.358Z,90.47
2019-03-26T06:40:55.428Z,90.58
2019-03-26T06:41:55.435Z,89.86
2019-03-26T06:42:55.434Z,91.82
2019-03-26T06:43:55.393Z,90.16
2019-03-26T06:44:55.381Z,89.75
2019-03-26T06:45:55.366Z,89.54
2019-03-26T06:46:55.402Z,90.06
2019-03-26T06:47:55.352Z,90.37
2019-03-26T06:48:55.335Z,88.92
2019-03-26T06:49:55.332Z,89.71
2019-03-26T06:50:55.316Z,88.88
2019-03-26T06:51:55.323Z,89.92
2019-03-26T06:52:55.304Z,88.36
2019-03-26T06:53:55.281Z,88.46
2019-03-26T06:54:55.276Z,87.74
2019-03-26T06:55:55.264Z,87.70
2019-03-26T06:56:55.273Z,88.78
2019-03-26T06:57:55.237Z,88.88
2019-03-26T06:58:55.249Z,87.91
2019-03-26T07:00:02.118Z,88.74
2019-03-26T07:00:55.210Z,88.74
2019-03-26T07:01:55.199Z,87.60
2019-03-26T07:02:55.195Z,87.91
2019-03-26T07:03:55.183Z,87.39
2019-03-26T07:04:55.186Z,88.22
2019-03-26T07:05:55.182Z,87.91
2019-03-26T07:06:57.725Z,87.25
2019-03-26T07:07:55.143Z,87.66
2019-03-26T07:08:55.127Z,87.35
2019-03-26T07:09:55.113Z,87.81
2019-03-26T07:10:55.101Z,87.04
2019-03-26T07:11:55.173Z,86.73
2019-03-26T07:12:55.099Z,87.66
2019-03-26T07:13:55.071Z,87.56
2019-03-26T07:14:55.066Z,87.97
2019-03-26T07:15:55.045Z,86.67
2019-03-26T07:16:55.037Z,87.35
2019-03-26T07:17:55.059Z,86.73
2019-03-26T07:18:55.011Z,87.39
2019-03-26T07:19:55.012Z,86.88
2019-03-26T07:20:55.015Z,86.57
2019-03-26T07:21:54.983Z,86.98
2019-03-26T07:22:54.992Z,87.18
2019-03-26T07:23:54.958Z,86.77
2019-03-26T07:24:54.955Z,87.35
2019-03-26T07:25:54.938Z,88.07
2019-03-26T07:26:54.927Z,86.63
2019-03-26T07:27:55.005Z,86.38
2019-03-26T07:28:56.732Z,85.31
2019-03-26T07:29:54.900Z,85.68
2019-03-26T07:30:54.881Z,84.43
2019-03-26T07:31:54.883Z,83.56
2019-03-26T07:32:54.886Z,81.11
2019-03-26T07:33:54.976Z,79.39
2019-03-26T07:34:54.844Z,77.51
2019-03-26T07:35:54.829Z,77.92
2019-03-26T07:36:54.821Z,76.17
2019-03-26T07:37:54.807Z,73.54
2019-03-26T07:38:54.813Z,73.50
2019-03-26T07:39:54.801Z,73.95
2019-03-26T07:40:54.792Z,72.34
2019-03-26T07:41:54.763Z,72.96
2019-03-26T07:42:54.757Z,73.57
2019-03-26T07:43:54.763Z,71.22
2019-03-26T07:44:54.746Z,69.56
2019-03-26T07:45:54.723Z,68.43
2019-03-26T07:46:54.725Z,69.35
2019-03-26T07:47:54.706Z,69.48
2019-03-26T07:48:54.711Z,70.71
2019-03-26T07:49:54.732Z,69.89
2019-03-26T07:50:54.679Z,70.54
2019-03-26T07:51:54.657Z,69.45
2019-03-26T07:52:54.653Z,70.64
2019-03-26T07:53:54.675Z,72.65
2019-03-26T07:54:54.619Z,71.87
2019-03-26T07:55:54.620Z,72.89
2019-03-26T07:56:54.625Z,71.39
2019-03-26T07:57:54.646Z,72.04
2019-03-26T07:58:54.592Z,70.71
2019-03-26T07:59:54.570Z,71.90
2019-03-26T08:00:54.556Z,70.78
2019-03-26T08:01:54.546Z,71.01
2019-03-26T08:02:54.553Z,71.25
2019-03-26T08:03:54.575Z,71.28
2019-03-26T08:04:54.520Z,71.42
2019-03-26T08:05:54.514Z,72.14
2019-03-26T08:06:54.498Z,72.99
2019-03-26T08:07:58.641Z,73.85
2019-03-26T08:08:54.492Z,73.23
2019-03-26T08:09:54.464Z,74.05
2019-03-26T08:10:54.446Z,74.49
2019-03-26T08:11:54.449Z,74.91
2019-03-26T08:12:54.464Z,75.83
2019-03-26T08:13:54.483Z,75.21
2019-03-26T08:14:54.436Z,76.04
2019-03-26T08:15:54.415Z,77.47
2019-03-26T08:16:54.411Z,75.32
2019-03-26T08:17:54.378Z,76.04
2019-03-26T08:18:54.374Z,75.83
2019-03-26T08:19:54.354Z,76.65
2019-03-26T08:20:57.339Z,76.17
2019-03-26T08:21:54.342Z,75.49
2019-03-26T08:22:54.350Z,76.17
2019-03-26T08:23:54.326Z,75.87
2019-03-26T08:24:54.297Z,77.00
2019-03-26T08:25:54.282Z,75.87
2019-03-26T08:26:54.379Z,76.04
2019-03-26T08:27:54.263Z,76.45
2019-03-26T08:28:54.313Z,76.17
2019-03-26T08:29:54.247Z,76.75
2019-03-26T08:30:54.248Z,75.93
2019-03-26T08:31:54.220Z,75.21
2019-03-26T08:32:54.212Z,75.32
2019-03-26T08:33:54.206Z,75.93
2019-03-26T08:34:54.232Z,75.21
2019-03-26T08:35:54.182Z,75.21
2019-03-26T08:36:54.190Z,74.08
2019-03-26T08:37:54.165Z,75.42
2019-03-26T08:38:54.172Z,76.24
2019-03-26T08:39:54.155Z,74.29
2019-03-26T08:40:54.160Z,74.49
2019-03-26T08:41:54.113Z,73.81
2019-03-26T08:42:54.111Z,74.22
2019-03-26T08:43:54.091Z,74.67
2019-03-26T08:44:54.097Z,74.46
2019-03-26T08:45:54.074Z,75.49
2019-03-26T08:46:54.056Z,75.32
2019-03-26T08:47:54.046Z,76.31
2019-03-26T08:48:54.036Z,75.52
2019-03-26T08:49:54.040Z,76.14
2019-03-26T08:50:54.021Z,76.25
2019-03-26T08:51:54.003Z,76.10
2019-03-26T08:52:53.987Z,76.82
2019-03-26T08:53:53.979Z,73.13
2019-03-26T08:54:53.982Z,75.70
2019-03-26T08:55:53.964Z,74.84
2019-03-26T08:56:53.975Z,72.89
2019-03-26T08:57:53.942Z,73.91
2019-03-26T08:58:53.925Z,73.91
2019-03-26T08:59:53.934Z,72.99
2019-03-26T09:00:53.905Z,73.19
2019-03-26T09:01:53.895Z,72.96
2019-03-26T09:02:53.909Z,72.96
2019-03-26T09:03:53.875Z,72.34
2019-03-26T09:04:53.881Z,72.48
2019-03-26T09:05:53.847Z,71.97
2019-03-26T09:06:53.839Z,73.10
2019-03-26T09:07:53.827Z,73.19
2019-03-26T09:08:53.823Z,73.91
2019-03-26T09:09:53.841Z,74.15
2019-03-26T09:10:53.795Z,72.99
2019-03-26T09:11:53.789Z,73.61
2019-03-26T09:12:54.631Z,73.19
2019-03-26T09:13:53.768Z,73.68
2019-03-26T09:14:53.767Z,72.03
2019-03-26T09:16:17.631Z,73.27
2019-03-26T09:18:04.545Z,72.96
2019-03-26T09:19:04.531Z,73.16
2019-03-26T09:20:04.529Z,71.56
2019-03-26T09:21:04.510Z,71.11
2019-03-26T09:22:04.509Z,71.39
2019-03-26T09:23:04.511Z,69.24
2019-03-26T09:24:04.478Z,69.13
2019-03-26T09:25:04.480Z,68.32
2019-03-26T09:26:04.499Z,69.00
2019-03-26T09:27:04.445Z,69.04
2019-03-26T09:28:04.431Z,67.07
2019-03-26T09:29:04.419Z,66.52
2019-03-26T09:30:04.443Z,63.25
2019-03-26T09:31:04.413Z,63.63
2019-03-26T09:32:04.428Z,64.45
2019-03-26T09:33:04.377Z,63.22
2019-03-26T09:34:04.363Z,61.72
2019-03-26T09:35:04.355Z,62.95
2019-03-26T09:36:04.362Z,62.87
2019-03-26T09:37:04.334Z,63.41
2019-03-26T09:38:04.328Z,65.77
2019-03-26T09:39:04.316Z,65.49
2019-03-26T09:40:19.199Z,66.10
2019-03-26T09:42:15.114Z,66.24
2019-03-26T09:46:48.514Z,66.88
2019-03-26T09:47:48.513Z,69.13
2019-03-26T09:48:48.489Z,67.57
2019-03-26T09:49:48.483Z,67.16
2019-03-26T09:50:48.487Z,66.54
2019-03-26T09:51:48.481Z,67.19
2019-03-26T09:52:48.454Z,66.78
2019-03-26T09:53:48.450Z,68.18
2019-03-26T09:54:48.424Z,68.28
2019-03-26T09:55:48.433Z,66.82
2019-03-26T09:56:48.408Z,67.54
2019-03-26T09:57:48.394Z,66.38
2019-03-26T09:58:48.381Z,66.35
2019-03-26T09:59:48.374Z,64.89
2019-03-26T10:00:48.564Z,65.16
2019-03-26T10:01:48.354Z,65.34
2019-03-26T10:02:48.341Z,64.65
2019-03-26T10:03:48.332Z,64.37
2019-03-26T10:04:48.316Z,64.99
2019-03-26T10:05:48.328Z,64.89
2019-03-26T10:06:48.294Z,65.09
2019-03-26T10:07:48.309Z,66.25
2019-03-26T10:08:52.687Z,65.12
2019-03-26T10:09:48.265Z,66.35
2019-03-26T10:10:48.376Z,66.04
2019-03-26T10:11:48.243Z,66.78
2019-03-26T10:12:48.234Z,67.13
2019-03-26T10:13:48.226Z,67.77
2019-03-26T10:14:48.301Z,68.49
2019-03-26T10:15:48.225Z,68.73
2019-03-26T10:16:48.185Z,68.86
2019-03-26T10:17:48.178Z,69.57
2019-03-26T10:18:48.162Z,71.35
2019-03-26T10:19:48.166Z,70.64
2019-03-26T10:20:48.147Z,70.94
2019-03-26T10:21:48.145Z,71.56
2019-03-26T10:22:48.120Z,71.90
2019-03-26T10:23:48.157Z,71.39
2019-03-26T10:24:48.103Z,72.10
2019-03-26T10:25:48.095Z,73.33
2019-03-26T10:26:48.148Z,74.05
2019-03-26T10:27:48.069Z,73.44
2019-03-26T10:28:48.053Z,74.36
2019-03-26T10:29:48.047Z,74.32
2019-03-26T10:30:48.034Z,73.57
2019-03-26T10:31:48.033Z,73.06
2019-03-26T10:32:48.055Z,71.39
2019-03-26T10:33:48.004Z,71.39
2019-03-26T10:34:47.996Z,70.74
2019-03-26T10:35:47.978Z,70.84
2019-03-26T10:36:47.990Z,69.00
2019-03-26T10:37:47.963Z,69.61
2019-03-26T10:38:47.958Z,71.25
2019-03-26T10:39:47.944Z,71.04
2019-03-26T10:40:47.923Z,71.39
2019-03-26T10:41:47.946Z,71.39
2019-03-26T10:42:47.930Z,71.97
2019-03-26T10:43:47.896Z,70.74
2019-03-26T10:44:47.938Z,70.77
2019-03-26T10:45:47.895Z,73.74
2019-03-26T10:46:47.890Z,73.06
2019-03-26T10:47:47.849Z,72.86
2019-03-26T10:48:47.843Z,74.73
2019-03-26T10:49:47.863Z,74.15
2019-03-26T10:50:47.817Z,75.56
2019-03-26T10:51:47.843Z,75.90
2019-03-26T10:52:47.801Z,75.08
2019-03-26T10:53:47.783Z,77.03
2019-03-26T10:54:47.882Z,79.24
2019-03-26T10:55:47.766Z,78.87
2019-03-26T10:56:47.770Z,80.82
2019-03-26T10:57:47.743Z,80.88
2019-03-26T10:58:47.730Z,82.32
2019-03-26T10:59:47.719Z,79.62
2019-03-26T11:00:47.711Z,81.15
2019-03-26T11:01:47.721Z,80.64
2019-03-26T11:02:47.695Z,78.49
2019-03-26T11:03:47.677Z,78.90
2019-03-26T11:04:47.663Z,79.00
2019-03-26T11:05:47.650Z,80.40
2019-03-26T11:06:47.661Z,77.33
2019-03-26T11:07:47.631Z,79.17
2019-03-26T11:08:47.623Z,76.92
2019-03-26T11:09:47.614Z,76.27
2019-03-26T11:10:47.600Z,73.88
2019-03-26T11:11:47.616Z,73.64
2019-03-26T11:12:47.592Z,72.72
2019-03-26T11:13:47.562Z,73.30
2019-03-26T11:14:47.565Z,73.47
2019-03-26T11:15:47.553Z,71.83
2019-03-26T11:16:47.560Z,71.73
2019-03-26T11:17:47.542Z,70.81
2019-03-26T11:18:47.512Z,69.52
2019-03-26T11:19:47.509Z,70.84
2019-03-26T11:21:01.378Z,71.77
2019-03-26T11:21:48.478Z,72.41
2019-03-26T11:22:47.490Z,73.16
2019-03-26T11:23:47.456Z,74.69
2019-03-26T11:24:47.494Z,72.99
2019-03-26T11:25:47.434Z,72.78
2019-03-26T11:26:47.432Z,73.54
2019-03-26T11:27:47.430Z,73.03
2019-03-26T11:28:47.402Z,73.64
2019-03-26T11:29:47.397Z,73.13
2019-03-26T11:30:47.381Z,74.26
2019-03-26T11:31:47.389Z,75.18
2019-03-26T11:32:47.412Z,74.05
2019-03-26T11:33:47.349Z,75.48
2019-03-26T11:34:47.337Z,74.77
2019-03-26T11:35:47.329Z,75.73
2019-03-26T11:36:47.314Z,76.27
2019-03-26T11:37:47.322Z,79.24
2019-03-26T11:38:47.296Z,80.68
2019-03-26T11:39:47.288Z,80.96
2019-03-26T11:40:47.274Z,82.03
2019-03-26T11:41:47.265Z,82.99
2019-03-26T11:42:47.275Z,84.32
2019-03-26T11:43:47.239Z,86.21
2019-03-26T11:44:47.232Z,86.11
2019-03-26T11:45:47.219Z,87.65
2019-03-26T11:46:47.209Z,86.60
2019-03-26T11:47:47.214Z,86.74
2019-03-26T11:48:47.186Z,88.08
2019-03-26T11:49:47.172Z,88.59
2019-03-26T11:50:47.166Z,89.05
2019-03-26T11:51:47.154Z,88.84
2019-03-26T11:52:47.154Z,89.87
2019-03-26T11:53:47.137Z,89.67
2019-03-26T11:54:47.145Z,89.77
2019-03-26T11:55:47.118Z,90.55
2019-03-26T11:56:47.116Z,91.80
2019-03-26T11:57:47.105Z,90.06
2019-03-26T11:58:47.093Z,90.32
2019-03-26T11:59:47.080Z,89.48
2019-03-26T12:00:47.076Z,90.23
2019-03-26T12:01:47.049Z,89.56
2019-03-26T12:02:47.067Z,92.11
2019-03-26T12:03:47.058Z,85.47
2019-03-26T12:04:47.019Z,85.30
2019-03-26T12:05:47.001Z,84.48
2019-03-26T12:06:47.009Z,84.07
2019-03-26T12:07:47.009Z,83.56
2019-03-26T12:08:46.975Z,81.72
2019-03-26T12:09:47.074Z,82.07
2019-03-26T12:10:46.952Z,82.84
2019-03-26T12:11:46.948Z,82.27
2019-03-26T12:12:46.935Z,81.18
2019-03-26T12:13:46.953Z,82.00
2019-03-26T12:14:46.912Z,80.91
2019-03-26T12:15:46.915Z,82.39
2019-03-26T12:16:46.973Z,82.08
2019-03-26T12:17:46.901Z,84.37
2019-03-26T12:18:46.877Z,81.81
2019-03-26T12:19:46.892Z,82.77
2019-03-26T12:20:46.845Z,84.00
2019-03-26T12:21:46.851Z,86.77
2019-03-26T12:22:46.816Z,84.00
2019-03-26T12:23:46.849Z,84.10
2019-03-26T12:24:46.857Z,85.60
2019-03-26T12:25:46.785Z,84.47
2019-03-26T12:26:46.775Z,84.47
2019-03-26T12:27:46.761Z,82.32
2019-03-26T12:28:46.776Z,82.49
2019-03-26T12:29:46.744Z,84.39
2019-03-26T12:30:46.725Z,82.00
2019-03-26T12:31:46.718Z,83.39
2019-03-26T12:32:46.708Z,81.72
2019-03-26T12:33:46.712Z,80.69
2019-03-26T12:34:46.688Z,80.66
2019-03-26T12:35:46.750Z,80.35
2019-03-26T12:36:46.662Z,80.15
2019-03-26T12:37:46.661Z,79.74
2019-03-26T12:38:46.672Z,81.58
2019-03-26T12:39:58.875Z,80.66
2019-03-26T12:40:47.625Z,79.33
2019-03-26T12:41:46.613Z,80.46
2019-03-26T12:42:46.620Z,79.94
2019-03-26T12:43:46.606Z,80.73
2019-03-26T12:44:46.589Z,81.20
2019-03-26T12:45:46.562Z,80.30
2019-03-26T12:46:46.558Z,78.77
2019-03-26T12:47:46.566Z,78.57
2019-03-26T12:48:46.556Z,77.62
2019-03-26T12:49:46.518Z,78.39
2019-03-26T12:50:46.526Z,76.25
2019-03-26T12:51:46.508Z,76.05
2019-03-26T12:52:46.488Z,77.58
2019-03-26T12:53:46.492Z,76.35
2019-03-26T12:54:46.480Z,76.35
2019-03-26T12:55:46.458Z,75.34
2019-03-26T12:56:46.456Z,74.73
2019-03-26T12:57:46.431Z,74.11
2019-03-26T12:58:46.434Z,76.01